createdAt,value
2022-07-26T00:01:20.715Z,19.46
2022-07-26T00:03:49.396Z,19.40
2022-07-26T00:06:19.086Z,19.39
2022-07-26T00:08:45.848Z,19.35
2022-07-26T00:11:12.607Z,19.34
2022-07-26T00:13:39.387Z,19.32
2022-07-26T00:16:06.690Z,19.36
2022-07-26T00:18:33.626Z,19.34
2022-07-26T00:21:00.205Z,19.28
2022-07-26T00:23:27.823Z,19.22
2022-07-26T00:25:54.423Z,19.16
2022-07-26T00:28:20.920Z,19.17
2022-07-26T00:30:47.529Z,19.10
2022-07-26T00:33:14.072Z,19.10
2022-07-26T00:35:40.766Z,19.05
2022-07-26T00:38:07.672Z,19.02
2022-07-26T00:40:35.869Z,18.99
2022-07-26T00:43:02.485Z,19.01
2022-07-26T00:45:28.982Z,18.98
2022-07-26T00:47:55.732Z,19.00
2022-07-26T00:50:22.333Z,18.98
2022-07-26T00:52:49.517Z,19.02
2022-07-26T00:55:17.289Z,19.01
2022-07-26T00:57:44.546Z,18.98
2022-07-26T01:00:15.008Z,18.89
2022-07-26T01:02:42.156Z,18.90
2022-07-26T01:05:09.097Z,18.88
2022-07-26T01:07:38.390Z,18.84
2022-07-26T01:10:12.055Z,18.86
2022-07-26T01:12:40.054Z,18.83
2022-07-26T01:15:07.906Z,18.88
2022-07-26T01:17:36.323Z,18.86
2022-07-26T01:20:07.543Z,18.81
2022-07-26T01:22:34.171Z,18.78
2022-07-26T01:25:00.870Z,18.78
2022-07-26T01:27:33.555Z,18.79
2022-07-26T01:30:00.811Z,18.79
2022-07-26T01:32:27.416Z,18.68
2022-07-26T01:34:54.167Z,18.74
2022-07-26T01:37:20.801Z,18.73
2022-07-26T01:39:47.345Z,18.69
2022-07-26T01:42:13.893Z,18.69
2022-07-26T01:44:40.701Z,18.68
2022-07-26T01:47:07.407Z,18.60
2022-07-26T01:49:33.952Z,18.65
2022-07-26T01:52:00.518Z,18.57
2022-07-26T01:54:27.101Z,18.48
2022-07-26T01:56:53.701Z,18.41
2022-07-26T01:59:20.287Z,18.41
2022-07-26T02:01:46.986Z,18.44
2022-07-26T02:04:33.665Z,18.41
2022-07-26T02:07:00.358Z,18.43
2022-07-26T02:09:33.014Z,18.47
2022-07-26T02:12:06.316Z,18.44
2022-07-26T02:14:32.857Z,18.46
2022-07-26T02:17:00.258Z,18.35
2022-07-26T02:19:28.819Z,18.40
2022-07-26T02:21:55.717Z,18.38
2022-07-26T02:24:22.559Z,18.32
2022-07-26T02:26:49.110Z,18.26
2022-07-26T02:29:16.047Z,18.25
2022-07-26T02:31:42.810Z,18.24
2022-07-26T02:34:15.189Z,18.22
2022-07-26T02:36:41.773Z,18.16
2022-07-26T02:39:08.429Z,18.14
2022-07-26T02:41:34.900Z,18.10
2022-07-26T02:44:02.853Z,18.10
2022-07-26T02:46:29.511Z,18.13
2022-07-26T02:48:56.108Z,18.12
2022-07-26T02:51:22.725Z,18.19
2022-07-26T02:53:49.318Z,18.23
2022-07-26T02:56:15.779Z,18.25
2022-07-26T02:58:42.399Z,18.16
2022-07-26T03:01:08.998Z,18.15
2022-07-26T03:03:36.404Z,18.21
2022-07-26T03:06:03.553Z,18.15
2022-07-26T03:08:30.098Z,18.15
2022-07-26T03:10:56.775Z,18.15
2022-07-26T03:13:23.462Z,18.10
2022-07-26T03:15:50.101Z,18.12
2022-07-26T03:18:16.736Z,18.16
2022-07-26T03:20:43.617Z,18.10
2022-07-26T03:23:10.152Z,18.05
2022-07-26T03:25:38.242Z,18.11
2022-07-26T03:28:04.934Z,18.14
2022-07-26T03:30:31.531Z,18.12
2022-07-26T03:32:58.019Z,18.08
2022-07-26T03:35:25.445Z,18.02
2022-07-26T03:37:52.541Z,18.06
2022-07-26T03:40:20.090Z,18.08
2022-07-26T03:42:47.848Z,18.00
2022-07-26T03:45:15.542Z,18.09
2022-07-26T03:47:42.446Z,18.06
2022-07-26T03:50:10.959Z,17.95
2022-07-26T03:52:37.835Z,17.94
2022-07-26T03:55:25.305Z,17.93
2022-07-26T03:57:52.403Z,17.94
2022-07-26T04:00:19.029Z,17.84
2022-07-26T04:02:46.355Z,17.94
2022-07-26T04:05:12.978Z,17.93
2022-07-26T04:07:43.318Z,17.96
2022-07-26T04:10:20.275Z,17.83
2022-07-26T04:12:46.816Z,17.89
2022-07-26T04:15:13.374Z,17.91
2022-07-26T04:17:41.080Z,18.06
2022-07-26T04:20:09.648Z,18.10
2022-07-26T04:22:37.839Z,18.08
2022-07-26T04:25:06.159Z,18.04
2022-07-26T04:27:33.192Z,18.08
2022-07-26T04:29:59.936Z,18.11
2022-07-26T04:32:26.633Z,18.08
2022-07-26T04:34:53.354Z,18.10
2022-07-26T04:37:19.995Z,18.11
2022-07-26T04:39:48.438Z,18.08
2022-07-26T04:42:18.337Z,18.08
2022-07-26T04:44:44.813Z,18.10
2022-07-26T04:47:11.445Z,18.11
2022-07-26T04:49:37.893Z,18.19
2022-07-26T04:52:04.634Z,18.22
2022-07-26T04:54:31.185Z,18.24
2022-07-26T04:56:57.742Z,18.28
2022-07-26T04:59:24.209Z,18.33
2022-07-26T05:01:50.790Z,18.27
2022-07-26T05:04:17.304Z,18.21
2022-07-26T05:06:43.826Z,18.26
2022-07-26T05:09:10.828Z,18.36
2022-07-26T05:11:37.580Z,18.28
2022-07-26T05:14:04.492Z,18.22
2022-07-26T05:16:31.470Z,18.36
2022-07-26T05:18:58.078Z,18.46
2022-07-26T05:21:24.530Z,18.61
2022-07-26T05:23:51.043Z,18.72
2022-07-26T05:26:17.558Z,18.80
2022-07-26T05:28:44.014Z,18.83
2022-07-26T05:31:10.694Z,18.97
2022-07-26T05:33:37.492Z,19.00
2022-07-26T05:36:04.366Z,18.97
2022-07-26T05:38:30.907Z,19.07
2022-07-26T05:40:57.444Z,19.10
2022-07-26T05:43:23.897Z,19.15
2022-07-26T05:45:50.464Z,19.36
2022-07-26T05:48:16.893Z,19.55
2022-07-26T05:50:44.252Z,19.18
2022-07-26T05:53:10.861Z,19.27
2022-07-26T05:55:37.291Z,19.25
2022-07-26T05:58:03.900Z,19.28
2022-07-26T06:00:30.488Z,19.33
2022-07-26T06:02:57.998Z,19.27
2022-07-26T06:05:24.726Z,19.45
2022-07-26T06:07:51.309Z,19.46
2022-07-26T06:10:17.781Z,19.64
2022-07-26T06:12:44.781Z,19.63
2022-07-26T06:15:15.254Z,19.80
2022-07-26T06:17:42.682Z,19.79
2022-07-26T06:20:09.964Z,19.69
2022-07-26T06:22:36.553Z,19.70
2022-07-26T06:25:03.586Z,19.73
2022-07-26T06:27:32.127Z,19.77
2022-07-26T06:29:58.660Z,19.36
2022-07-26T06:32:25.101Z,19.62
2022-07-26T06:34:51.675Z,19.88
2022-07-26T06:37:18.154Z,20.14
2022-07-26T06:39:44.694Z,20.39
2022-07-26T06:42:11.175Z,20.47
2022-07-26T06:44:39.800Z,20.18
2022-07-26T06:47:06.546Z,19.94
2022-07-26T06:49:33.212Z,19.99
2022-07-26T06:52:00.140Z,20.02
2022-07-26T06:54:27.635Z,20.14
2022-07-26T06:56:54.224Z,20.24
2022-07-26T06:59:20.827Z,20.57
2022-07-26T07:01:55.401Z,20.78
2022-07-26T07:04:29.657Z,21.13
2022-07-26T07:06:57.538Z,21.40
2022-07-26T07:09:24.577Z,21.44
2022-07-26T07:11:56.194Z,21.41
2022-07-26T07:14:26.986Z,21.31
2022-07-26T07:16:53.589Z,21.60
2022-07-26T07:19:20.252Z,21.91
2022-07-26T07:21:46.903Z,21.36
2022-07-26T07:24:13.619Z,21.62
2022-07-26T07:26:41.071Z,21.80
2022-07-26T07:29:10.157Z,21.90
2022-07-26T07:31:48.125Z,22.13
2022-07-26T07:34:16.510Z,21.97
2022-07-26T07:36:43.209Z,22.48
2022-07-26T07:39:15.625Z,22.89
2022-07-26T07:41:48.661Z,23.04
2022-07-26T07:44:15.820Z,23.25
2022-07-26T07:46:42.709Z,23.60
2022-07-26T07:49:10.839Z,23.97
2022-07-26T07:51:38.062Z,24.02
2022-07-26T07:54:05.786Z,24.66
2022-07-26T07:56:33.423Z,24.05
2022-07-26T07:59:00.327Z,24.89
2022-07-26T08:01:39.643Z,24.56
2022-07-26T08:04:07.946Z,24.62
2022-07-26T08:06:34.756Z,24.81
2022-07-26T08:09:01.553Z,24.93
2022-07-26T08:11:30.688Z,24.82
2022-07-26T08:14:00.444Z,24.68
2022-07-26T08:16:27.319Z,24.45
2022-07-26T08:18:57.173Z,24.88
2022-07-26T08:21:35.464Z,25.44
2022-07-26T08:24:02.707Z,25.20
2022-07-26T08:26:29.473Z,25.95
2022-07-26T08:28:59.652Z,25.87
2022-07-26T08:31:28.324Z,25.51
2022-07-26T08:33:55.236Z,25.47
2022-07-26T08:36:22.013Z,26.27
2022-07-26T08:38:48.706Z,26.53
2022-07-26T08:41:17.562Z,25.63
2022-07-26T08:43:51.706Z,25.46
2022-07-26T08:46:28.002Z,26.28
2022-07-26T08:48:56.557Z,25.97
2022-07-26T08:51:25.098Z,25.59
2022-07-26T08:53:58.036Z,25.48
2022-07-26T08:56:30.638Z,25.79
2022-07-26T08:58:57.386Z,25.40
2022-07-26T09:01:24.085Z,26.04
2022-07-26T09:03:50.945Z,26.63
2022-07-26T09:06:22.609Z,25.80
2022-07-26T09:08:53.405Z,25.44
2022-07-26T09:11:33.366Z,25.33
2022-07-26T09:14:02.517Z,25.92
2022-07-26T09:16:30.073Z,26.16
2022-07-26T09:19:22.189Z,25.84
2022-07-26T09:21:49.264Z,25.65
2022-07-26T09:24:35.798Z,25.99
2022-07-26T09:27:04.981Z,26.21
2022-07-26T09:29:42.753Z,25.77
2022-07-26T09:32:11.156Z,25.19
2022-07-26T09:34:48.081Z,26.09
2022-07-26T09:37:32.255Z,26.82
2022-07-26T09:40:01.409Z,26.61
2022-07-26T09:42:29.573Z,27.18
2022-07-26T09:44:58.234Z,27.45
2022-07-26T09:47:39.667Z,27.91
2022-07-26T09:50:21.030Z,27.60
2022-07-26T09:53:11.077Z,27.71
2022-07-26T09:55:55.837Z,27.02
2022-07-26T09:58:24.473Z,26.50
2022-07-26T10:00:51.232Z,26.55
2022-07-26T10:03:17.965Z,26.48
2022-07-26T10:05:44.631Z,26.37
2022-07-26T10:08:12.737Z,25.93
2022-07-26T10:10:50.965Z,26.17
2022-07-26T10:13:18.003Z,25.69
2022-07-26T10:15:47.635Z,25.98
2022-07-26T10:18:36.705Z,25.93
2022-07-26T10:21:16.675Z,25.58
2022-07-26T10:23:45.840Z,24.67
2022-07-26T10:26:32.238Z,24.71
2022-07-26T10:29:16.954Z,25.49
2022-07-26T10:31:47.425Z,26.01
2022-07-26T10:34:39.490Z,26.44
2022-07-26T10:37:20.693Z,26.82
2022-07-26T10:39:47.253Z,27.01
2022-07-26T10:42:13.767Z,26.92
2022-07-26T10:44:42.474Z,26.67
2022-07-26T10:47:08.932Z,27.07
2022-07-26T10:49:38.374Z,27.11
2022-07-26T10:52:23.147Z,28.14
2022-07-26T10:54:58.970Z,28.19
2022-07-26T10:57:30.363Z,28.17
2022-07-26T10:59:57.905Z,27.95
2022-07-26T11:02:27.921Z,28.45
2022-07-26T11:05:14.978Z,28.66
2022-07-26T11:08:11.081Z,28.50
2022-07-26T11:10:37.503Z,28.58
2022-07-26T11:13:18.754Z,29.35
2022-07-26T11:15:50.901Z,28.64
2022-07-26T11:18:27.744Z,28.45
2022-07-26T11:20:55.997Z,28.77
2022-07-26T11:23:28.302Z,27.30
2022-07-26T11:26:19.494Z,26.85
2022-07-26T11:28:50.646Z,26.44
2022-07-26T11:31:20.046Z,27.02
2022-07-26T11:33:49.089Z,27.23
2022-07-26T11:36:15.606Z,27.95
2022-07-26T11:38:48.324Z,28.27
2022-07-26T11:41:18.839Z,27.76
2022-07-26T11:43:45.362Z,27.61
2022-07-26T11:46:12.114Z,27.29
2022-07-26T11:48:45.354Z,27.46
2022-07-26T11:51:13.483Z,27.61
2022-07-26T11:53:40.160Z,27.76
2022-07-26T11:56:14.887Z,27.51
2022-07-26T11:58:42.733Z,27.67
2022-07-26T12:01:09.949Z,28.25
2022-07-26T12:03:41.035Z,27.11
2022-07-26T12:06:10.465Z,25.95
2022-07-26T12:08:46.372Z,26.70
2022-07-26T12:11:15.494Z,27.70
2022-07-26T12:13:55.322Z,27.47
2022-07-26T12:16:45.633Z,27.17
2022-07-26T12:19:18.397Z,27.27
2022-07-26T12:21:51.215Z,27.50
2022-07-26T12:24:43.518Z,26.77
2022-07-26T12:27:11.809Z,27.29
2022-07-26T12:29:40.842Z,28.02
2022-07-26T12:32:12.711Z,27.73
2022-07-26T12:34:41.648Z,27.79
2022-07-26T12:37:17.479Z,27.62
2022-07-26T12:40:18.832Z,28.08
2022-07-26T12:42:51.046Z,28.74
2022-07-26T12:45:24.177Z,28.74
2022-07-26T12:47:52.771Z,28.34
2022-07-26T12:50:21.920Z,27.99
2022-07-26T12:52:48.909Z,27.96
2022-07-26T12:55:18.922Z,28.44
2022-07-26T12:57:47.586Z,27.91
2022-07-26T13:00:16.541Z,27.67
2022-07-26T13:02:44.072Z,28.25
2022-07-26T13:05:11.367Z,28.63
2022-07-26T13:07:38.832Z,28.24
2022-07-26T13:10:32.537Z,27.87
2022-07-26T13:12:53.658Z,28.05
2022-07-26T13:15:20.225Z,28.09
2022-07-26T13:17:46.726Z,28.09
2022-07-26T13:20:13.290Z,28.76
2022-07-26T13:22:42.639Z,29.06
2022-07-26T13:25:09.425Z,29.31
2022-07-26T13:27:41.469Z,28.55
2022-07-26T13:30:11.567Z,28.75
2022-07-26T13:32:38.099Z,28.61
2022-07-26T13:35:04.872Z,28.84
2022-07-26T13:37:31.984Z,28.85
2022-07-26T13:39:58.557Z,28.89
2022-07-26T13:42:25.043Z,28.20
2022-07-26T13:44:51.540Z,28.12
2022-07-26T13:47:18.003Z,28.19
2022-07-26T13:49:44.518Z,27.76
2022-07-26T13:52:15.782Z,28.12
2022-07-26T13:54:43.489Z,27.58
2022-07-26T13:57:10.107Z,28.55
2022-07-26T13:59:36.644Z,28.00
2022-07-26T14:02:04.758Z,27.78
2022-07-26T14:04:31.433Z,27.88
2022-07-26T14:06:57.991Z,27.69
2022-07-26T14:09:24.811Z,27.52
2022-07-26T14:11:52.407Z,27.04
2022-07-26T14:14:19.024Z,27.55
2022-07-26T14:16:49.344Z,27.67
2022-07-26T14:19:16.521Z,27.62
2022-07-26T14:21:48.855Z,27.72
2022-07-26T14:24:26.474Z,27.55
2022-07-26T14:26:56.846Z,28.20
2022-07-26T14:29:26.010Z,27.73
2022-07-26T14:31:52.801Z,27.91
2022-07-26T14:34:19.495Z,27.40
2022-07-26T14:36:45.985Z,27.23
2022-07-26T14:39:12.652Z,27.62
2022-07-26T14:41:39.329Z,27.10
2022-07-26T14:44:06.490Z,27.21
2022-07-26T14:46:33.141Z,27.14
2022-07-26T14:48:59.768Z,27.66
2022-07-26T14:51:26.626Z,27.39
2022-07-26T14:53:53.199Z,26.85
2022-07-26T14:56:19.824Z,26.61
2022-07-26T14:58:46.325Z,26.77
2022-07-26T15:01:13.013Z,26.69
2022-07-26T15:03:39.698Z,26.61
2022-07-26T15:06:06.235Z,26.58
2022-07-26T15:08:32.754Z,26.28
2022-07-26T15:10:59.382Z,26.97
2022-07-26T15:13:25.899Z,26.81
2022-07-26T15:15:52.609Z,27.05
2022-07-26T15:18:19.157Z,26.31
2022-07-26T15:20:45.633Z,26.50
2022-07-26T15:23:15.100Z,26.13
2022-07-26T15:25:42.094Z,25.94
2022-07-26T15:28:08.713Z,26.19
2022-07-26T15:30:35.786Z,26.41
2022-07-26T15:33:02.687Z,26.44
2022-07-26T15:35:29.807Z,26.17
2022-07-26T15:37:56.869Z,25.80
2022-07-26T15:40:23.531Z,26.23
2022-07-26T15:42:52.154Z,25.98
2022-07-26T15:45:20.717Z,26.20
2022-07-26T15:48:03.328Z,26.26
2022-07-26T15:50:34.780Z,26.38
2022-07-26T15:53:01.381Z,26.53
2022-07-26T15:55:28.158Z,26.29
2022-07-26T15:57:54.799Z,26.42
2022-07-26T16:00:21.361Z,26.47
2022-07-26T16:02:47.948Z,26.40
2022-07-26T16:05:14.639Z,26.20
2022-07-26T16:07:41.958Z,26.20
2022-07-26T16:10:10.546Z,25.72
2022-07-26T16:12:37.149Z,26.09
2022-07-26T16:15:07.959Z,26.18
2022-07-26T16:17:34.624Z,26.08
2022-07-26T16:20:02.260Z,25.89
2022-07-26T16:22:28.909Z,25.69
2022-07-26T16:24:55.443Z,26.09
2022-07-26T16:27:22.016Z,26.06
2022-07-26T16:29:52.129Z,26.06
2022-07-26T16:32:21.001Z,25.74
2022-07-26T16:34:47.521Z,25.86
2022-07-26T16:37:14.198Z,25.49
2022-07-26T16:39:40.719Z,25.44
2022-07-26T16:42:07.661Z,25.63
2022-07-26T16:44:36.011Z,25.39
2022-07-26T16:47:03.763Z,25.34
2022-07-26T16:49:30.597Z,25.21
2022-07-26T16:51:57.645Z,24.83
2022-07-26T16:54:24.625Z,24.79
2022-07-26T16:56:51.118Z,24.70
2022-07-26T16:59:18.149Z,24.34
2022-07-26T17:01:44.994Z,24.24
2022-07-26T17:04:11.544Z,24.49
2022-07-26T17:06:38.130Z,24.55
2022-07-26T17:09:04.674Z,24.53
2022-07-26T17:11:31.229Z,24.51
2022-07-26T17:13:58.085Z,24.30
2022-07-26T17:16:25.032Z,24.03
2022-07-26T17:18:53.344Z,24.02
2022-07-26T17:21:20.425Z,23.88
2022-07-26T17:23:47.106Z,24.09
2022-07-26T17:26:13.939Z,23.85
2022-07-26T17:28:40.920Z,23.84
2022-07-26T17:31:07.480Z,23.71
2022-07-26T17:33:34.116Z,23.62
2022-07-26T17:36:03.319Z,23.73
2022-07-26T17:38:33.445Z,23.67
2022-07-26T17:41:00.747Z,23.63
2022-07-26T17:43:36.704Z,23.45
2022-07-26T17:46:04.002Z,23.61
2022-07-26T17:48:30.584Z,23.53
2022-07-26T17:50:57.161Z,23.51
2022-07-26T17:53:34.610Z,23.48
2022-07-26T17:56:02.289Z,23.51
2022-07-26T17:58:28.881Z,23.40
2022-07-26T18:00:55.454Z,23.41
2022-07-26T18:03:23.125Z,23.36
2022-07-26T18:05:50.534Z,23.19
2022-07-26T18:08:17.514Z,23.24
2022-07-26T18:10:48.983Z,23.15
2022-07-26T18:13:17.744Z,23.18
2022-07-26T18:15:44.275Z,23.14
2022-07-26T18:18:10.979Z,22.99
2022-07-26T18:20:37.598Z,23.06
2022-07-26T18:23:03.977Z,22.93
2022-07-26T18:25:30.538Z,22.87
2022-07-26T18:27:56.987Z,22.82
2022-07-26T18:30:23.643Z,22.75
2022-07-26T18:32:50.259Z,22.64
2022-07-26T18:35:16.808Z,22.43
2022-07-26T18:37:43.282Z,22.45
2022-07-26T18:40:10.234Z,22.36
2022-07-26T18:42:36.768Z,22.29
2022-07-26T18:45:03.525Z,22.25
2022-07-26T18:47:30.071Z,22.25
2022-07-26T18:49:56.586Z,22.15
2022-07-26T18:52:31.584Z,22.13
2022-07-26T18:54:59.867Z,22.08
2022-07-26T18:57:26.396Z,22.02
2022-07-26T18:59:52.813Z,21.89
2022-07-26T19:02:19.432Z,21.78
2022-07-26T19:04:46.059Z,21.70
2022-07-26T19:07:12.747Z,21.53
2022-07-26T19:09:39.396Z,21.48
2022-07-26T19:12:06.042Z,21.44
2022-07-26T19:14:32.703Z,21.41
2022-07-26T19:16:59.337Z,21.36
2022-07-26T19:19:25.936Z,21.29
2022-07-26T19:21:52.599Z,21.18
2022-07-26T19:24:19.221Z,21.12
2022-07-26T19:26:45.739Z,21.01
2022-07-26T19:29:12.836Z,20.81
2022-07-26T19:31:41.938Z,20.55
2022-07-26T19:34:08.663Z,20.26
2022-07-26T19:36:35.408Z,20.16
2022-07-26T19:39:02.268Z,20.14
2022-07-26T19:41:28.937Z,20.03
2022-07-26T19:43:55.546Z,19.94
2022-07-26T19:46:22.305Z,19.84
2022-07-26T19:48:49.086Z,19.80
2022-07-26T19:51:15.804Z,19.74
2022-07-26T19:53:44.664Z,19.71
2022-07-26T19:56:11.525Z,19.80
2022-07-26T19:58:38.135Z,19.57
2022-07-26T20:01:05.026Z,19.70
2022-07-26T20:03:32.211Z,19.81
2022-07-26T20:05:59.848Z,19.91
2022-07-26T20:08:26.484Z,19.69
2022-07-26T20:10:53.045Z,19.47
2022-07-26T20:13:19.706Z,19.48
2022-07-26T20:15:49.016Z,19.44
2022-07-26T20:18:18.286Z,19.34
2022-07-26T20:20:45.008Z,19.39
2022-07-26T20:23:11.838Z,19.36
2022-07-26T20:25:38.495Z,19.33
2022-07-26T20:28:05.224Z,19.25
2022-07-26T20:30:31.961Z,19.16
2022-07-26T20:32:58.656Z,19.18
2022-07-26T20:35:25.177Z,19.24
2022-07-26T20:37:51.812Z,19.27
2022-07-26T20:40:18.749Z,19.21
2022-07-26T20:42:45.432Z,19.21
2022-07-26T20:45:14.862Z,19.16
2022-07-26T20:47:41.697Z,19.10
2022-07-26T20:50:09.697Z,18.95
2022-07-26T20:52:36.576Z,18.87
2022-07-26T20:55:03.827Z,18.78
2022-07-26T20:57:30.895Z,18.67
2022-07-26T20:59:57.584Z,18.53
2022-07-26T21:02:24.324Z,18.39
2022-07-26T21:04:51.216Z,18.33
2022-07-26T21:07:18.308Z,18.24
2022-07-26T21:09:45.023Z,18.30
2022-07-26T21:12:11.770Z,18.36
2022-07-26T21:14:38.516Z,18.27
2022-07-26T21:17:10.954Z,18.23
2022-07-26T21:19:38.315Z,18.08
2022-07-26T21:22:05.170Z,18.08
2022-07-26T21:24:31.837Z,17.95
2022-07-26T21:26:58.561Z,17.92
2022-07-26T21:29:25.159Z,17.87
2022-07-26T21:31:51.878Z,17.83
2022-07-26T21:34:19.073Z,17.81
2022-07-26T21:36:46.355Z,17.69
2022-07-26T21:39:13.921Z,17.75
2022-07-26T21:41:40.989Z,17.68
2022-07-26T21:44:07.711Z,17.68
2022-07-26T21:46:34.506Z,17.59
2022-07-26T21:49:01.291Z,17.58
2022-07-26T21:51:27.986Z,17.47
2022-07-26T21:53:54.574Z,17.47
2022-07-26T21:56:21.888Z,17.50
2022-07-26T21:58:48.744Z,17.56
2022-07-26T22:03:11.748Z,17.43
2022-07-26T22:05:38.434Z,17.43
2022-07-26T22:08:06.245Z,17.41
2022-07-26T22:10:33.851Z,17.36
2022-07-26T22:13:00.521Z,17.37
2022-07-26T22:15:27.003Z,17.30
2022-07-26T22:17:55.174Z,17.28
2022-07-26T22:20:22.660Z,17.46
2022-07-26T22:22:49.226Z,17.41
2022-07-26T22:25:15.774Z,17.44
2022-07-26T22:27:42.207Z,17.37
2022-07-26T22:30:09.248Z,17.39
2022-07-26T22:32:35.836Z,17.40
2022-07-26T22:35:02.303Z,17.45
2022-07-26T22:37:28.845Z,17.42
2022-07-26T22:39:55.366Z,17.37
2022-07-26T22:42:21.886Z,17.34
2022-07-26T22:44:48.386Z,17.22
2022-07-26T22:47:14.975Z,17.22
2022-07-26T22:49:41.543Z,17.04
2022-07-26T22:52:08.060Z,17.07
2022-07-26T22:54:34.714Z,17.00
2022-07-26T22:57:01.422Z,17.01
2022-07-26T22:59:27.899Z,16.99
2022-07-26T23:01:54.490Z,16.92
2022-07-26T23:04:21.112Z,16.86
2022-07-26T23:06:48.047Z,16.87
2022-07-26T23:09:14.847Z,16.82
2022-07-26T23:11:41.479Z,16.75
2022-07-26T23:14:08.022Z,16.74
2022-07-26T23:16:34.626Z,16.62
2022-07-26T23:19:01.176Z,16.66
2022-07-26T23:21:27.795Z,16.65
2022-07-26T23:23:54.662Z,16.55
2022-07-26T23:26:21.148Z,16.47
2022-07-26T23:28:47.592Z,16.52
2022-07-26T23:31:14.366Z,16.53
2022-07-26T23:33:52.016Z,16.50
2022-07-26T23:36:21.574Z,16.48
2022-07-26T23:38:48.010Z,16.50
2022-07-26T23:41:14.615Z,16.48
2022-07-26T23:43:41.096Z,16.52
2022-07-26T23:46:07.543Z,16.41
2022-07-26T23:48:34.061Z,16.31
2022-07-26T23:51:00.492Z,16.19
2022-07-26T23:53:27.361Z,16.18
2022-07-26T23:55:54.094Z,16.17
2022-07-26T23:58:20.746Z,16.11
